createdAt,value
2022-11-07T00:01:23.477Z,99.99
2022-11-07T00:04:29.141Z,99.99
2022-11-07T00:07:31.428Z,99.99
2022-11-07T00:10:33.554Z,99.99
2022-11-07T00:13:35.746Z,99.99
2022-11-07T00:16:37.885Z,99.99
2022-11-07T00:19:40.068Z,99.99
2022-11-07T00:22:42.202Z,99.99
2022-11-07T00:25:44.428Z,99.99
2022-11-07T00:28:46.895Z,99.99
2022-11-07T00:31:49.381Z,99.99
2022-11-07T00:34:51.563Z,99.99
2022-11-07T00:37:57.162Z,99.99
2022-11-07T00:41:02.055Z,99.99
2022-11-07T00:44:04.611Z,99.99
2022-11-07T00:47:06.750Z,99.99
2022-11-07T00:50:09.329Z,99.99
2022-11-07T00:53:11.758Z,99.99
2022-11-07T00:56:16.432Z,99.99
2022-11-07T00:59:18.647Z,99.99
2022-11-07T01:02:20.922Z,99.99
2022-11-07T01:05:23.134Z,99.99
2022-11-07T01:08:25.604Z,99.99
2022-11-07T01:11:29.415Z,99.99
2022-11-07T01:14:31.617Z,99.99
2022-11-07T01:17:33.774Z,99.98
2022-11-07T01:20:36.284Z,99.99
2022-11-07T01:23:38.453Z,99.99
2022-11-07T01:26:41.774Z,99.99
2022-11-07T01:29:43.919Z,99.99
2022-11-07T01:32:46.186Z,99.99
2022-11-07T01:35:48.325Z,99.99
2022-11-07T01:38:50.654Z,99.99
2022-11-07T01:41:52.819Z,99.99
2022-11-07T01:44:58.107Z,99.99
2022-11-07T01:48:02.910Z,99.99
2022-11-07T01:51:05.758Z,99.99
2022-11-07T01:54:08.474Z,99.99
2022-11-07T01:57:19.654Z,99.99
2022-11-07T02:00:23.632Z,99.99
2022-11-07T02:03:26.059Z,99.99
2022-11-07T02:06:52.167Z,99.99
2022-11-07T02:09:55.148Z,99.99
2022-11-07T02:12:59.476Z,99.99
2022-11-07T02:16:03.733Z,99.99
2022-11-07T02:19:11.390Z,99.99
2022-11-07T02:22:23.568Z,99.99
2022-11-07T02:25:25.749Z,99.99
2022-11-07T02:28:28.834Z,99.99
2022-11-07T02:31:31.207Z,99.99
2022-11-07T02:34:33.787Z,99.99
2022-11-07T02:37:38.547Z,99.99
2022-11-07T02:40:41.479Z,99.99
2022-11-07T02:43:49.586Z,99.81
2022-11-07T02:46:51.985Z,99.89
2022-11-07T02:49:54.105Z,99.85
2022-11-07T02:52:56.352Z,99.94
2022-11-07T02:55:58.488Z,99.99
2022-11-07T02:59:00.666Z,99.95
2022-11-07T03:02:02.965Z,99.96
2022-11-07T03:05:06.209Z,99.66
2022-11-07T03:08:08.444Z,99.70
2022-11-07T03:11:11.750Z,99.43
2022-11-07T03:14:14.012Z,99.41
2022-11-07T03:17:16.193Z,99.65
2022-11-07T03:20:18.519Z,99.60
2022-11-07T03:23:20.711Z,99.60
2022-11-07T03:26:22.856Z,99.49
2022-11-07T03:29:25.067Z,99.47
2022-11-07T03:32:27.245Z,99.58
2022-11-07T03:35:29.483Z,99.75
2022-11-07T03:38:31.651Z,99.65
2022-11-07T03:41:33.895Z,99.99
2022-11-07T03:44:36.107Z,99.99
2022-11-07T03:47:40.014Z,99.99
2022-11-07T03:50:42.157Z,99.99
2022-11-07T03:53:44.335Z,99.99
2022-11-07T03:56:46.500Z,99.99
2022-11-07T03:59:48.697Z,99.99
2022-11-07T04:02:50.963Z,99.99
2022-11-07T04:05:59.990Z,99.99
2022-11-07T04:09:02.133Z,99.99
2022-11-07T04:12:26.157Z,99.99
2022-11-07T04:15:46.792Z,99.99
2022-11-07T04:18:49.086Z,99.92
2022-11-07T04:21:51.226Z,99.93
2022-11-07T04:24:53.521Z,99.95
2022-11-07T04:27:55.659Z,99.96
2022-11-07T04:30:57.844Z,99.92
2022-11-07T04:33:59.983Z,99.99
2022-11-07T04:37:02.252Z,99.99
2022-11-07T04:40:04.894Z,99.99
2022-11-07T04:43:10.028Z,99.99
2022-11-07T04:46:12.264Z,99.99
2022-11-07T04:49:15.267Z,99.99
2022-11-07T04:52:17.524Z,99.99
2022-11-07T04:55:23.622Z,99.99
2022-11-07T04:58:25.781Z,99.99
2022-11-07T05:01:28.008Z,99.99
2022-11-07T05:04:30.193Z,99.99
2022-11-07T05:07:32.394Z,99.99
2022-11-07T05:10:34.835Z,99.99
2022-11-07T05:13:37.037Z,99.99
2022-11-07T05:16:42.218Z,99.99
2022-11-07T05:19:44.531Z,99.81
2022-11-07T05:23:04.966Z,99.58
2022-11-07T05:26:07.159Z,99.80
2022-11-07T05:29:10.902Z,99.99
2022-11-07T05:32:13.918Z,99.99
2022-11-07T05:35:16.071Z,99.99
2022-11-07T05:38:18.275Z,99.99
2022-11-07T05:41:21.880Z,99.99
2022-11-07T05:44:24.250Z,99.99
2022-11-07T05:47:26.398Z,99.99
2022-11-07T05:50:29.641Z,99.43
2022-11-07T05:53:31.917Z,99.17
2022-11-07T05:56:34.263Z,99.49
2022-11-07T05:59:36.651Z,99.99
2022-11-07T06:02:38.916Z,99.99
2022-11-07T06:05:42.330Z,99.67
2022-11-07T06:08:44.557Z,99.63
2022-11-07T06:11:46.695Z,99.98
2022-11-07T06:14:48.874Z,99.76
2022-11-07T06:17:51.020Z,99.78
2022-11-07T06:20:53.192Z,99.99
2022-11-07T06:23:55.330Z,99.99
2022-11-07T06:26:57.586Z,99.99
2022-11-07T06:29:59.803Z,99.99
2022-11-07T06:33:03.603Z,99.99
2022-11-07T06:36:11.289Z,99.99
2022-11-07T06:39:13.640Z,99.61
2022-11-07T06:42:15.857Z,99.10
2022-11-07T06:45:18.217Z,99.00
2022-11-07T06:48:20.403Z,99.22
2022-11-07T06:51:22.688Z,99.14
2022-11-07T06:54:24.921Z,99.30
2022-11-07T06:57:28.576Z,98.68
2022-11-07T07:00:33.215Z,98.18
2022-11-07T07:03:35.879Z,98.11
2022-11-07T07:06:38.851Z,97.84
2022-11-07T07:09:41.037Z,97.44
2022-11-07T07:12:45.842Z,97.38
2022-11-07T07:15:55.178Z,97.43
2022-11-07T07:18:57.444Z,97.29
2022-11-07T07:21:59.869Z,96.50
2022-11-07T07:25:02.827Z,95.82
2022-11-07T07:28:06.780Z,95.66
2022-11-07T07:31:17.684Z,95.79
2022-11-07T07:34:24.832Z,94.84
2022-11-07T07:37:32.930Z,95.29
2022-11-07T07:40:35.171Z,95.16
2022-11-07T07:43:37.333Z,95.41
2022-11-07T07:46:39.660Z,95.91
2022-11-07T07:49:44.633Z,96.06
2022-11-07T07:52:46.882Z,95.87
2022-11-07T07:55:49.120Z,95.93
2022-11-07T07:58:51.432Z,95.92
2022-11-07T08:01:56.927Z,95.47
2022-11-07T08:04:59.884Z,95.10
2022-11-07T08:08:02.175Z,94.44
2022-11-07T08:11:12.095Z,93.75
2022-11-07T08:14:14.718Z,92.94
2022-11-07T08:17:17.343Z,92.90
2022-11-07T08:20:28.044Z,92.03
2022-11-07T08:23:31.243Z,92.15
2022-11-07T08:26:33.527Z,92.23
2022-11-07T08:29:35.982Z,91.53
2022-11-07T08:32:40.279Z,91.49
2022-11-07T08:35:42.997Z,92.31
2022-11-07T08:38:45.174Z,92.37
2022-11-07T08:41:50.425Z,92.65
2022-11-07T08:44:52.671Z,91.70
2022-11-07T08:47:59.245Z,91.00
2022-11-07T08:51:04.084Z,90.91
2022-11-07T08:54:08.585Z,90.38
2022-11-07T08:57:13.741Z,89.61
2022-11-07T09:00:18.225Z,90.25
2022-11-07T09:06:45.878Z,90.13
2022-11-07T09:09:48.211Z,90.87
2022-11-07T09:12:51.241Z,91.01
2022-11-07T09:15:57.688Z,91.20
2022-11-07T09:18:59.954Z,91.40
2022-11-07T09:22:02.113Z,90.95
2022-11-07T09:25:04.638Z,90.72
2022-11-07T09:28:06.909Z,91.29
2022-11-07T09:31:10.301Z,91.37
2022-11-07T09:34:12.734Z,91.34
2022-11-07T09:37:14.988Z,91.25
2022-11-07T09:40:19.992Z,90.77
2022-11-07T09:43:48.012Z,91.36
2022-11-07T09:47:07.778Z,90.04
2022-11-07T09:50:19.210Z,90.38
2022-11-07T09:53:40.054Z,89.97
2022-11-07T09:56:44.297Z,88.81
2022-11-07T09:59:54.628Z,89.24
2022-11-07T10:02:59.173Z,89.14
2022-11-07T10:06:16.828Z,88.85
2022-11-07T10:10:08.771Z,88.80
2022-11-07T10:13:32.678Z,88.89
2022-11-07T10:17:08.170Z,89.37
2022-11-07T10:20:28.054Z,89.68
2022-11-07T10:23:58.315Z,89.61
2022-11-07T10:27:04.868Z,89.25
2022-11-07T10:30:19.582Z,90.09
2022-11-07T10:33:39.807Z,89.05
2022-11-07T10:36:42.258Z,88.94
2022-11-07T10:39:44.478Z,89.55
2022-11-07T10:42:48.214Z,89.66
2022-11-07T10:45:54.259Z,89.93
2022-11-07T10:48:59.433Z,89.48
2022-11-07T10:52:20.328Z,89.61
2022-11-07T10:55:29.883Z,90.05
2022-11-07T10:58:38.827Z,89.36
2022-11-07T11:01:42.178Z,88.56
2022-11-07T11:04:54.400Z,88.81
2022-11-07T11:07:58.290Z,88.48
2022-11-07T11:11:00.455Z,88.31
2022-11-07T11:14:11.662Z,87.95
2022-11-07T11:17:26.417Z,88.13
2022-11-07T11:20:41.507Z,88.60
2022-11-07T11:23:47.872Z,88.45
2022-11-07T11:26:53.569Z,88.74
2022-11-07T11:30:13.425Z,88.69
2022-11-07T11:33:21.969Z,88.88
2022-11-07T11:36:37.515Z,88.12
2022-11-07T11:39:49.201Z,88.18
2022-11-07T11:43:11.487Z,87.38
2022-11-07T11:46:23.165Z,87.61
2022-11-07T11:49:34.307Z,87.83
2022-11-07T11:52:36.806Z,88.09
2022-11-07T11:55:52.041Z,88.13
2022-11-07T11:59:31.967Z,87.23
2022-11-07T12:03:16.099Z,87.28
2022-11-07T12:06:34.687Z,87.54
2022-11-07T12:10:07.758Z,86.30
2022-11-07T12:13:19.122Z,86.20
2022-11-07T12:16:36.630Z,84.79
2022-11-07T12:20:06.569Z,83.70
2022-11-07T12:23:37.928Z,82.79
2022-11-07T12:26:57.609Z,82.52
2022-11-07T12:30:06.270Z,82.68
2022-11-07T12:33:32.170Z,83.05
2022-11-07T12:36:53.093Z,82.73
2022-11-07T12:40:22.750Z,82.67
2022-11-07T12:43:43.089Z,83.13
2022-11-07T12:46:54.858Z,83.23
2022-11-07T12:50:06.158Z,83.66
2022-11-07T12:53:14.076Z,83.74
2022-11-07T12:56:22.235Z,84.23
2022-11-07T12:59:29.806Z,84.80
2022-11-07T13:02:56.135Z,86.40
2022-11-07T13:06:19.732Z,86.70
2022-11-07T13:09:38.320Z,86.83
2022-11-07T13:12:49.488Z,87.44
2022-11-07T13:16:14.543Z,87.62
2022-11-07T13:19:33.353Z,88.25
2022-11-07T13:22:40.926Z,89.12
2022-11-07T13:25:43.610Z,88.11
2022-11-07T13:29:02.365Z,88.18
2022-11-07T13:32:13.861Z,88.33
2022-11-07T13:35:37.971Z,87.39
2022-11-07T13:38:50.612Z,86.49
2022-11-07T13:41:54.144Z,86.79
2022-11-07T13:45:01.096Z,86.30
2022-11-07T13:48:09.890Z,83.10
2022-11-07T13:51:20.639Z,76.81
2022-11-07T13:54:34.659Z,71.68
2022-11-07T13:57:41.537Z,70.19
2022-11-07T14:00:43.722Z,69.37
2022-11-07T14:03:46.043Z,67.17
2022-11-07T14:06:50.217Z,65.43
2022-11-07T14:10:01.725Z,64.33
2022-11-07T14:13:08.278Z,64.93
2022-11-07T14:16:26.205Z,67.70
2022-11-07T14:19:30.251Z,71.89
2022-11-07T14:22:32.450Z,72.97
2022-11-07T14:25:35.650Z,75.04
2022-11-07T14:28:39.567Z,77.12
2022-11-07T14:31:41.752Z,78.67
2022-11-07T14:34:46.272Z,79.19
2022-11-07T14:37:48.598Z,80.57
2022-11-07T14:40:53.591Z,82.61
2022-11-07T14:44:03.749Z,84.44
2022-11-07T14:47:13.940Z,85.33
2022-11-07T14:50:20.835Z,86.30
2022-11-07T14:53:49.120Z,87.10
2022-11-07T14:56:55.816Z,87.34
2022-11-07T15:00:05.005Z,87.76
2022-11-07T15:03:18.806Z,88.55
2022-11-07T15:06:33.602Z,88.52
2022-11-07T15:09:35.805Z,89.24
2022-11-07T15:12:52.335Z,89.74
2022-11-07T15:16:06.988Z,90.01
2022-11-07T15:19:18.109Z,90.76
2022-11-07T15:22:31.031Z,90.80
2022-11-07T15:26:08.335Z,91.28
2022-11-07T15:29:20.834Z,92.07
2022-11-07T15:32:25.920Z,92.46
2022-11-07T15:35:44.852Z,93.07
2022-11-07T15:38:48.795Z,93.70
2022-11-07T15:41:50.942Z,93.91
2022-11-07T15:44:53.187Z,94.02
2022-11-07T15:47:55.322Z,94.53
2022-11-07T15:50:57.574Z,95.11
2022-11-07T15:53:59.844Z,95.19
2022-11-07T15:57:05.754Z,95.10
2022-11-07T16:00:15.569Z,95.32
2022-11-07T16:03:19.902Z,95.82
2022-11-07T16:06:28.982Z,96.13
2022-11-07T16:09:32.876Z,96.18
2022-11-07T16:12:35.018Z,96.48
2022-11-07T16:15:37.883Z,96.86
2022-11-07T16:18:44.002Z,97.24
2022-11-07T16:21:48.418Z,97.19
2022-11-07T16:24:50.584Z,97.16
2022-11-07T16:27:55.659Z,96.93
2022-11-07T16:30:58.445Z,96.94
2022-11-07T16:34:00.818Z,96.74
2022-11-07T16:37:02.951Z,97.82
2022-11-07T16:40:08.572Z,98.61
2022-11-07T16:43:11.103Z,98.53
2022-11-07T16:46:16.087Z,98.73
2022-11-07T16:49:30.724Z,98.58
2022-11-07T16:52:32.941Z,98.59
2022-11-07T16:55:35.073Z,98.84
2022-11-07T16:58:38.709Z,98.69
2022-11-07T17:01:41.061Z,98.90
2022-11-07T17:04:43.424Z,99.90
2022-11-07T17:07:45.628Z,99.86
2022-11-07T17:10:48.235Z,99.49
2022-11-07T17:13:50.494Z,99.71
2022-11-07T17:16:52.772Z,99.77
2022-11-07T17:19:54.981Z,99.99
2022-11-07T17:22:57.236Z,99.99
2022-11-07T17:26:02.353Z,99.42
2022-11-07T17:29:06.778Z,99.99
2022-11-07T17:32:08.910Z,99.99
2022-11-07T17:35:31.305Z,99.99
2022-11-07T17:38:34.053Z,99.99
2022-11-07T17:41:36.649Z,99.81
2022-11-07T17:44:39.509Z,99.99
2022-11-07T17:47:41.721Z,99.99
2022-11-07T17:50:43.923Z,99.99
2022-11-07T17:53:46.129Z,99.99
2022-11-07T17:56:48.461Z,99.99
2022-11-07T17:59:51.727Z,99.99
2022-11-07T18:02:54.041Z,99.99
2022-11-07T18:05:56.473Z,99.91
2022-11-07T18:09:00.196Z,99.99
2022-11-07T18:12:03.975Z,99.99
2022-11-07T18:15:06.751Z,99.99
2022-11-07T18:18:11.003Z,99.99
2022-11-07T18:21:13.516Z,99.87
2022-11-07T18:24:15.745Z,99.99
2022-11-07T18:27:17.962Z,99.99
2022-11-07T18:30:20.259Z,99.74
2022-11-07T18:33:23.231Z,99.87
2022-11-07T18:36:26.116Z,99.99
2022-11-07T18:39:28.459Z,99.99
2022-11-07T18:42:31.064Z,99.99
2022-11-07T18:45:33.220Z,99.99
2022-11-07T18:48:36.976Z,99.99
2022-11-07T18:51:39.558Z,99.99
2022-11-07T18:54:41.753Z,99.99
2022-11-07T18:57:43.912Z,99.99
2022-11-07T19:00:46.321Z,99.99
2022-11-07T19:03:48.680Z,99.99
2022-11-07T19:06:57.215Z,99.99
2022-11-07T19:09:59.627Z,99.99
2022-11-07T19:13:06.959Z,99.99
2022-11-07T19:16:12.475Z,99.99
2022-11-07T19:19:14.896Z,99.99
2022-11-07T19:22:17.116Z,99.99
2022-11-07T19:25:19.404Z,99.99
2022-11-07T19:28:21.909Z,99.99
2022-11-07T19:31:24.453Z,99.99
2022-11-07T19:34:26.780Z,99.99
2022-11-07T19:37:28.999Z,99.99
2022-11-07T19:40:32.229Z,99.99
2022-11-07T19:43:35.149Z,99.99
2022-11-07T19:46:37.368Z,99.99
2022-11-07T19:49:39.571Z,99.99
2022-11-07T19:52:42.266Z,99.99
2022-11-07T19:55:44.445Z,99.99
2022-11-07T19:58:46.600Z,99.99
2022-11-07T20:02:10.620Z,99.99
2022-11-07T20:05:10.996Z,99.99
2022-11-07T20:08:13.235Z,99.99
2022-11-07T20:11:17.784Z,99.99
2022-11-07T20:14:20.139Z,99.99
2022-11-07T20:17:22.336Z,99.99
2022-11-07T20:20:24.526Z,99.99
2022-11-07T20:23:26.671Z,99.99
2022-11-07T20:26:31.338Z,99.99
2022-11-07T20:29:33.476Z,99.99
2022-11-07T20:32:35.949Z,99.99
2022-11-07T20:35:38.081Z,99.99
2022-11-07T20:38:41.684Z,99.99
2022-11-07T20:41:43.912Z,99.99
2022-11-07T20:44:46.185Z,99.99
2022-11-07T20:47:48.358Z,99.99
2022-11-07T20:50:50.560Z,99.99
2022-11-07T20:53:59.232Z,99.99
2022-11-07T20:57:05.159Z,99.99
2022-11-07T21:00:08.178Z,99.99
2022-11-07T21:03:15.041Z,99.99
2022-11-07T21:06:18.494Z,99.99
2022-11-07T21:09:21.875Z,99.99
2022-11-07T21:12:24.015Z,99.99
2022-11-07T21:15:26.285Z,99.99
2022-11-07T21:18:28.484Z,99.99
2022-11-07T21:21:32.569Z,99.99
2022-11-07T21:24:34.703Z,99.99
2022-11-07T21:27:36.959Z,99.99
2022-11-07T21:30:39.869Z,99.99
2022-11-07T21:33:42.440Z,99.99
2022-11-07T21:36:44.937Z,99.99
2022-11-07T21:39:47.134Z,99.99
2022-11-07T21:42:49.269Z,99.99
2022-11-07T21:45:51.468Z,99.99
2022-11-07T21:48:54.979Z,99.99
2022-11-07T21:51:57.358Z,99.99
2022-11-07T21:54:59.529Z,99.99
2022-11-07T21:58:01.786Z,99.99
2022-11-07T22:01:11.428Z,99.99
2022-11-07T22:04:14.151Z,99.99
2022-11-07T22:07:16.319Z,99.99
2022-11-07T22:10:18.518Z,99.99
2022-11-07T22:13:20.716Z,99.99
2022-11-07T22:16:23.304Z,99.99
2022-11-07T22:19:26.010Z,99.99
2022-11-07T22:22:28.204Z,99.99
2022-11-07T22:25:32.602Z,99.99
2022-11-07T22:28:34.870Z,99.99
2022-11-07T22:31:37.009Z,99.99
2022-11-07T22:34:39.311Z,99.99
2022-11-07T22:37:41.533Z,99.99
2022-11-07T22:40:44.992Z,99.99
2022-11-07T22:43:48.569Z,99.99
2022-11-07T22:46:50.756Z,99.99
2022-11-07T22:49:52.894Z,99.99
2022-11-07T22:52:55.088Z,99.99
2022-11-07T22:55:57.384Z,99.99
2022-11-07T22:58:59.615Z,99.99
2022-11-07T23:02:02.032Z,99.99
2022-11-07T23:05:05.287Z,99.99
2022-11-07T23:08:08.798Z,99.99
2022-11-07T23:14:39.628Z,99.99
2022-11-07T23:17:41.970Z,99.99
2022-11-07T23:21:02.582Z,99.99
2022-11-07T23:24:05.344Z,99.99
2022-11-07T23:27:09.015Z,99.99
2022-11-07T23:30:13.974Z,99.99
2022-11-07T23:33:16.111Z,99.99
2022-11-07T23:36:18.381Z,99.99
2022-11-07T23:39:23.148Z,99.99
2022-11-07T23:42:25.337Z,99.99
2022-11-07T23:45:46.016Z,99.99
2022-11-07T23:49:11.905Z,99.99
2022-11-07T23:52:16.954Z,99.99
2022-11-07T23:55:37.586Z,99.99
2022-11-07T23:58:58.111Z,99.99
